sensor_id;sensor_type;location;lat;lon;timestamp;P1;durP1;ratioP1;P2;durP2;ratioP2
66342;SDS011;53144;51.524;5.080;2022-07-23T00:00:15;7.03;;;4.20;;
66342;SDS011;53144;51.524;5.080;2022-07-23T00:02:41;7.40;;;3.33;;
66342;SDS011;53144;51.524;5.080;2022-07-23T00:05:06;7.75;;;3.80;;
66342;SDS011;53144;51.524;5.080;2022-07-23T00:07:32;6.43;;;3.42;;
66342;SDS011;53144;51.524;5.080;2022-07-23T00:09:57;10.65;;;3.90;;
66342;SDS011;53144;51.524;5.080;2022-07-23T00:12:23;5.43;;;3.95;;
66342;SDS011;53144;51.524;5.080;2022-07-23T00:14:48;5.22;;;3.67;;
66342;SDS011;53144;51.524;5.080;2022-07-23T00:17:13;5.88;;;4.22;;
66342;SDS011;53144;51.524;5.080;2022-07-23T00:19:39;5.47;;;4.15;;
66342;SDS011;53144;51.524;5.080;2022-07-23T00:22:04;5.95;;;4.25;;
66342;SDS011;53144;51.524;5.080;2022-07-23T00:24:29;8.20;;;4.32;;
66342;SDS011;53144;51.524;5.080;2022-07-23T00:26:55;7.65;;;4.20;;
66342;SDS011;53144;51.524;5.080;2022-07-23T00:29:20;6.32;;;3.88;;
66342;SDS011;53144;51.524;5.080;2022-07-23T00:31:46;9.23;;;4.50;;
66342;SDS011;53144;51.524;5.080;2022-07-23T00:34:11;9.00;;;4.53;;
66342;SDS011;53144;51.524;5.080;2022-07-23T00:36:36;6.22;;;3.97;;
66342;SDS011;53144;51.524;5.080;2022-07-23T00:39:02;6.22;;;4.22;;
66342;SDS011;53144;51.524;5.080;2022-07-23T00:41:27;7.18;;;4.50;;
66342;SDS011;53144;51.524;5.080;2022-07-23T00:43:53;7.80;;;4.68;;
66342;SDS011;53144;51.524;5.080;2022-07-23T00:46:19;11.77;;;4.47;;
66342;SDS011;53144;51.524;5.080;2022-07-23T00:48:46;9.27;;;4.60;;
66342;SDS011;53144;51.524;5.080;2022-07-23T00:51:12;5.97;;;4.45;;
66342;SDS011;53144;51.524;5.080;2022-07-23T00:53:37;6.80;;;4.22;;
66342;SDS011;53144;51.524;5.080;2022-07-23T00:56:03;5.78;;;4.68;;
66342;SDS011;53144;51.524;5.080;2022-07-23T00:58:29;10.60;;;4.47;;
66342;SDS011;53144;51.524;5.080;2022-07-23T01:00:55;8.18;;;4.35;;
66342;SDS011;53144;51.524;5.080;2022-07-23T01:03:20;8.32;;;4.90;;
66342;SDS011;53144;51.524;5.080;2022-07-23T01:05:47;7.55;;;4.80;;
66342;SDS011;53144;51.524;5.080;2022-07-23T01:08:12;7.65;;;5.00;;
66342;SDS011;53144;51.524;5.080;2022-07-23T01:10:38;6.63;;;4.50;;
66342;SDS011;53144;51.524;5.080;2022-07-23T01:13:04;12.52;;;5.00;;
66342;SDS011;53144;51.524;5.080;2022-07-23T01:15:32;7.68;;;4.50;;
66342;SDS011;53144;51.524;5.080;2022-07-23T01:17:58;8.10;;;4.65;;
66342;SDS011;53144;51.524;5.080;2022-07-23T01:20:24;9.38;;;4.57;;
66342;SDS011;53144;51.524;5.080;2022-07-23T01:22:49;6.40;;;4.60;;
66342;SDS011;53144;51.524;5.080;2022-07-23T01:25:16;6.53;;;4.03;;
66342;SDS011;53144;51.524;5.080;2022-07-23T01:27:41;7.63;;;4.50;;
66342;SDS011;53144;51.524;5.080;2022-07-23T01:30:07;7.50;;;4.95;;
66342;SDS011;53144;51.524;5.080;2022-07-23T01:32:33;7.13;;;4.63;;
66342;SDS011;53144;51.524;5.080;2022-07-23T01:34:58;8.85;;;4.80;;
66342;SDS011;53144;51.524;5.080;2022-07-23T01:37:24;5.35;;;4.35;;
66342;SDS011;53144;51.524;5.080;2022-07-23T01:39:49;5.93;;;4.00;;
66342;SDS011;53144;51.524;5.080;2022-07-23T01:42:15;8.80;;;4.80;;
66342;SDS011;53144;51.524;5.080;2022-07-23T01:44:40;7.68;;;4.63;;
66342;SDS011;53144;51.524;5.080;2022-07-23T01:47:06;6.68;;;4.53;;
66342;SDS011;53144;51.524;5.080;2022-07-23T01:49:31;6.88;;;4.55;;
66342;SDS011;53144;51.524;5.080;2022-07-23T01:51:56;9.15;;;4.63;;
66342;SDS011;53144;51.524;5.080;2022-07-23T01:54:28;7.65;;;4.90;;
66342;SDS011;53144;51.524;5.080;2022-07-23T01:56:55;7.28;;;4.90;;
66342;SDS011;53144;51.524;5.080;2022-07-23T01:59:21;5.72;;;4.03;;
66342;SDS011;53144;51.524;5.080;2022-07-23T02:01:47;8.23;;;4.93;;
66342;SDS011;53144;51.524;5.080;2022-07-23T02:04:13;6.20;;;4.97;;
66342;SDS011;53144;51.524;5.080;2022-07-23T02:09:04;11.27;;;5.10;;
66342;SDS011;53144;51.524;5.080;2022-07-23T02:11:29;7.25;;;5.30;;
66342;SDS011;53144;51.524;5.080;2022-07-23T02:13:55;7.32;;;4.72;;
66342;SDS011;53144;51.524;5.080;2022-07-23T02:16:20;6.40;;;5.00;;
66342;SDS011;53144;51.524;5.080;2022-07-23T02:18:45;12.60;;;5.65;;
66342;SDS011;53144;51.524;5.080;2022-07-23T02:21:11;6.13;;;4.93;;
66342;SDS011;53144;51.524;5.080;2022-07-23T02:26:02;9.45;;;4.82;;
66342;SDS011;53144;51.524;5.080;2022-07-23T02:30:53;5.45;;;4.70;;
66342;SDS011;53144;51.524;5.080;2022-07-23T02:33:18;9.85;;;4.85;;
66342;SDS011;53144;51.524;5.080;2022-07-23T02:35:44;7.22;;;5.00;;
66342;SDS011;53144;51.524;5.080;2022-07-23T02:40:34;5.65;;;4.65;;
66342;SDS011;53144;51.524;5.080;2022-07-23T02:45:25;8.10;;;4.75;;
66342;SDS011;53144;51.524;5.080;2022-07-23T02:50:16;7.45;;;4.90;;
66342;SDS011;53144;51.524;5.080;2022-07-23T02:52:41;9.48;;;4.65;;
66342;SDS011;53144;51.524;5.080;2022-07-23T02:55:07;6.18;;;4.72;;
66342;SDS011;53144;51.524;5.080;2022-07-23T02:57:33;7.78;;;5.18;;
66342;SDS011;53144;51.524;5.080;2022-07-23T02:59:58;8.60;;;4.80;;
66342;SDS011;53144;51.524;5.080;2022-07-23T03:02:24;6.38;;;4.80;;
66342;SDS011;53144;51.524;5.080;2022-07-23T03:07:15;8.10;;;5.03;;
66342;SDS011;53144;51.524;5.080;2022-07-23T03:09:41;7.22;;;4.40;;
66342;SDS011;53144;51.524;5.080;2022-07-23T03:14:32;7.03;;;4.28;;
66342;SDS011;53144;51.524;5.080;2022-07-23T03:19:24;4.72;;;3.28;;
66342;SDS011;53144;51.524;5.080;2022-07-23T03:24:15;7.40;;;4.18;;
66342;SDS011;53144;51.524;5.080;2022-07-23T03:26:42;5.72;;;4.35;;
66342;SDS011;53144;51.524;5.080;2022-07-23T03:31:33;5.82;;;4.30;;
66342;SDS011;53144;51.524;5.080;2022-07-23T03:36:25;8.75;;;3.97;;
66342;SDS011;53144;51.524;5.080;2022-07-23T03:41:16;4.88;;;3.72;;
66342;SDS011;53144;51.524;5.080;2022-07-23T03:43:42;9.77;;;4.20;;
66342;SDS011;53144;51.524;5.080;2022-07-23T03:48:33;4.68;;;3.15;;
66342;SDS011;53144;51.524;5.080;2022-07-23T03:53:24;3.90;;;3.42;;
66342;SDS011;53144;51.524;5.080;2022-07-23T03:58:14;5.53;;;3.80;;
66342;SDS011;53144;51.524;5.080;2022-07-23T04:03:05;4.78;;;3.78;;
66342;SDS011;53144;51.524;5.080;2022-07-23T04:07:56;5.70;;;4.28;;
66342;SDS011;53144;51.524;5.080;2022-07-23T04:12:46;8.10;;;4.53;;
66342;SDS011;53144;51.524;5.080;2022-07-23T04:17:37;6.22;;;3.88;;
66342;SDS011;53144;51.524;5.080;2022-07-23T04:22:28;4.65;;;3.65;;
66342;SDS011;53144;51.524;5.080;2022-07-23T04:24:53;8.48;;;4.13;;
66342;SDS011;53144;51.524;5.080;2022-07-23T04:29:44;5.47;;;4.00;;
66342;SDS011;53144;51.524;5.080;2022-07-23T04:34:35;5.03;;;3.83;;
66342;SDS011;53144;51.524;5.080;2022-07-23T04:39:25;4.93;;;3.45;;
66342;SDS011;53144;51.524;5.080;2022-07-23T04:44:16;4.65;;;3.40;;
66342;SDS011;53144;51.524;5.080;2022-07-23T04:46:41;4.45;;;3.40;;
66342;SDS011;53144;51.524;5.080;2022-07-23T04:49:07;4.93;;;2.90;;
66342;SDS011;53144;51.524;5.080;2022-07-23T04:53:57;3.30;;;2.95;;
66342;SDS011;53144;51.524;5.080;2022-07-23T04:56:23;3.33;;;2.90;;
66342;SDS011;53144;51.524;5.080;2022-07-23T05:01:13;5.13;;;3.55;;
66342;SDS011;53144;51.524;5.080;2022-07-23T05:06:04;4.43;;;3.70;;
66342;SDS011;53144;51.524;5.080;2022-07-23T05:10:55;5.72;;;4.13;;
66342;SDS011;53144;51.524;5.080;2022-07-23T05:13:21;4.70;;;4.03;;
66342;SDS011;53144;51.524;5.080;2022-07-23T05:15:46;6.10;;;3.70;;
66342;SDS011;53144;51.524;5.080;2022-07-23T05:20:37;5.78;;;4.13;;
66342;SDS011;53144;51.524;5.080;2022-07-23T05:25:28;5.97;;;3.95;;
66342;SDS011;53144;51.524;5.080;2022-07-23T05:27:53;6.57;;;4.47;;
66342;SDS011;53144;51.524;5.080;2022-07-23T05:30:19;7.13;;;3.95;;
66342;SDS011;53144;51.524;5.080;2022-07-23T05:32:44;4.97;;;4.47;;
66342;SDS011;53144;51.524;5.080;2022-07-23T05:35:10;4.03;;;3.72;;
66342;SDS011;53144;51.524;5.080;2022-07-23T05:37:35;6.15;;;4.22;;
66342;SDS011;53144;51.524;5.080;2022-07-23T05:40:04;4.88;;;4.28;;
66342;SDS011;53144;51.524;5.080;2022-07-23T05:42:32;8.15;;;4.75;;
66342;SDS011;53144;51.524;5.080;2022-07-23T05:44:58;6.13;;;4.65;;
66342;SDS011;53144;51.524;5.080;2022-07-23T05:47:24;6.18;;;5.03;;
66342;SDS011;53144;51.524;5.080;2022-07-23T05:49:49;8.30;;;5.38;;
66342;SDS011;53144;51.524;5.080;2022-07-23T05:52:14;7.50;;;5.45;;
66342;SDS011;53144;51.524;5.080;2022-07-23T05:54:40;7.13;;;5.40;;
66342;SDS011;53144;51.524;5.080;2022-07-23T05:57:06;7.80;;;5.65;;
66342;SDS011;53144;51.524;5.080;2022-07-23T05:59:32;10.57;;;6.50;;
66342;SDS011;53144;51.524;5.080;2022-07-23T06:01:57;7.97;;;5.90;;
66342;SDS011;53144;51.524;5.080;2022-07-23T06:04:23;8.70;;;6.53;;
66342;SDS011;53144;51.524;5.080;2022-07-23T06:06:48;7.13;;;6.40;;
66342;SDS011;53144;51.524;5.080;2022-07-23T06:09:13;7.82;;;6.13;;
66342;SDS011;53144;51.524;5.080;2022-07-23T06:11:39;8.95;;;6.03;;
66342;SDS011;53144;51.524;5.080;2022-07-23T06:14:05;9.70;;;6.03;;
66342;SDS011;53144;51.524;5.080;2022-07-23T06:16:31;6.80;;;5.13;;
66342;SDS011;53144;51.524;5.080;2022-07-23T06:18:56;7.28;;;4.93;;
66342;SDS011;53144;51.524;5.080;2022-07-23T06:21:22;9.15;;;4.60;;
66342;SDS011;53144;51.524;5.080;2022-07-23T06:23:47;8.23;;;4.88;;
66342;SDS011;53144;51.524;5.080;2022-07-23T06:26:12;7.25;;;4.75;;
66342;SDS011;53144;51.524;5.080;2022-07-23T06:28:38;7.07;;;4.30;;
66342;SDS011;53144;51.524;5.080;2022-07-23T06:31:03;8.15;;;4.75;;
66342;SDS011;53144;51.524;5.080;2022-07-23T06:33:28;7.70;;;4.70;;
66342;SDS011;53144;51.524;5.080;2022-07-23T06:35:54;5.13;;;4.35;;
66342;SDS011;53144;51.524;5.080;2022-07-23T06:38:19;8.02;;;4.00;;
66342;SDS011;53144;51.524;5.080;2022-07-23T06:40:45;6.50;;;3.80;;
66342;SDS011;53144;51.524;5.080;2022-07-23T06:43:10;8.70;;;4.38;;
66342;SDS011;53144;51.524;5.080;2022-07-23T06:45:36;10.48;;;4.18;;
66342;SDS011;53144;51.524;5.080;2022-07-23T06:48:01;5.28;;;3.80;;
66342;SDS011;53144;51.524;5.080;2022-07-23T06:50:28;6.32;;;3.60;;
66342;SDS011;53144;51.524;5.080;2022-07-23T06:52:53;5.40;;;3.42;;
66342;SDS011;53144;51.524;5.080;2022-07-23T06:55:19;7.28;;;3.45;;
66342;SDS011;53144;51.524;5.080;2022-07-23T06:57:44;6.85;;;3.53;;
66342;SDS011;53144;51.524;5.080;2022-07-23T07:00:10;7.20;;;3.20;;
66342;SDS011;53144;51.524;5.080;2022-07-23T07:02:35;4.32;;;3.40;;
66342;SDS011;53144;51.524;5.080;2022-07-23T07:05:01;5.60;;;3.40;;
66342;SDS011;53144;51.524;5.080;2022-07-23T07:07:27;6.00;;;3.78;;
66342;SDS011;53144;51.524;5.080;2022-07-23T07:09:53;6.88;;;3.78;;
66342;SDS011;53144;51.524;5.080;2022-07-23T07:12:18;5.00;;;3.85;;
66342;SDS011;53144;51.524;5.080;2022-07-23T07:14:43;6.63;;;4.00;;
66342;SDS011;53144;51.524;5.080;2022-07-23T07:17:09;6.55;;;4.20;;
66342;SDS011;53144;51.524;5.080;2022-07-23T07:19:35;10.80;;;4.53;;
66342;SDS011;53144;51.524;5.080;2022-07-23T07:22:01;7.80;;;4.47;;
66342;SDS011;53144;51.524;5.080;2022-07-23T07:24:27;5.97;;;3.50;;
66342;SDS011;53144;51.524;5.080;2022-07-23T07:26:52;6.80;;;4.03;;
66342;SDS011;53144;51.524;5.080;2022-07-23T07:29:18;6.45;;;3.67;;
66342;SDS011;53144;51.524;5.080;2022-07-23T07:31:43;6.82;;;2.80;;
66342;SDS011;53144;51.524;5.080;2022-07-23T07:34:09;4.75;;;3.10;;
66342;SDS011;53144;51.524;5.080;2022-07-23T07:36:34;8.32;;;3.53;;
66342;SDS011;53144;51.524;5.080;2022-07-23T07:39:02;6.47;;;3.47;;
66342;SDS011;53144;51.524;5.080;2022-07-23T07:41:31;4.78;;;3.65;;
66342;SDS011;53144;51.524;5.080;2022-07-23T07:43:57;5.78;;;3.28;;
66342;SDS011;53144;51.524;5.080;2022-07-23T07:46:22;7.38;;;3.75;;
66342;SDS011;53144;51.524;5.080;2022-07-23T07:48:49;6.47;;;3.33;;
66342;SDS011;53144;51.524;5.080;2022-07-23T07:51:17;7.00;;;3.25;;
66342;SDS011;53144;51.524;5.080;2022-07-23T07:53:42;7.50;;;2.95;;
66342;SDS011;53144;51.524;5.080;2022-07-23T07:56:08;8.55;;;3.13;;
66342;SDS011;53144;51.524;5.080;2022-07-23T07:58:33;5.53;;;2.90;;
66342;SDS011;53144;51.524;5.080;2022-07-23T08:00:59;4.78;;;3.00;;
66342;SDS011;53144;51.524;5.080;2022-07-23T08:03:25;5.03;;;3.00;;
66342;SDS011;53144;51.524;5.080;2022-07-23T08:05:51;4.90;;;2.85;;
66342;SDS011;53144;51.524;5.080;2022-07-23T08:08:16;7.82;;;3.72;;
66342;SDS011;53144;51.524;5.080;2022-07-23T08:10:42;5.80;;;3.08;;
66342;SDS011;53144;51.524;5.080;2022-07-23T08:13:11;9.32;;;3.70;;
66342;SDS011;53144;51.524;5.080;2022-07-23T08:15:38;3.70;;;3.20;;
66342;SDS011;53144;51.524;5.080;2022-07-23T08:18:03;6.47;;;3.95;;
66342;SDS011;53144;51.524;5.080;2022-07-23T08:20:29;5.20;;;3.25;;
66342;SDS011;53144;51.524;5.080;2022-07-23T08:25:34;5.10;;;3.10;;
66342;SDS011;53144;51.524;5.080;2022-07-23T08:28:02;5.32;;;3.15;;
66342;SDS011;53144;51.524;5.080;2022-07-23T08:30:29;6.22;;;3.22;;
66342;SDS011;53144;51.524;5.080;2022-07-23T08:32:59;6.95;;;3.30;;
66342;SDS011;53144;51.524;5.080;2022-07-23T08:37:59;9.20;;;3.60;;
66342;SDS011;53144;51.524;5.080;2022-07-23T08:40:27;4.82;;;3.40;;
66342;SDS011;53144;51.524;5.080;2022-07-23T08:42:56;4.28;;;3.30;;
66342;SDS011;53144;51.524;5.080;2022-07-23T08:45:22;3.38;;;3.03;;
66342;SDS011;53144;51.524;5.080;2022-07-23T08:47:55;4.22;;;3.00;;
66342;SDS011;53144;51.524;5.080;2022-07-23T08:50:25;5.28;;;2.95;;
66342;SDS011;53144;51.524;5.080;2022-07-23T08:52:51;3.50;;;3.00;;
66342;SDS011;53144;51.524;5.080;2022-07-23T08:55:18;6.93;;;3.80;;
66342;SDS011;53144;51.524;5.080;2022-07-23T08:57:50;6.72;;;3.60;;
66342;SDS011;53144;51.524;5.080;2022-07-23T09:00:18;5.13;;;2.90;;
66342;SDS011;53144;51.524;5.080;2022-07-23T09:02:44;5.10;;;2.65;;
66342;SDS011;53144;51.524;5.080;2022-07-23T09:05:11;5.65;;;3.05;;
66342;SDS011;53144;51.524;5.080;2022-07-23T09:07:38;4.50;;;2.90;;
66342;SDS011;53144;51.524;5.080;2022-07-23T09:16:09;5.00;;;3.10;;
66342;SDS011;53144;51.524;5.080;2022-07-23T09:18:36;5.88;;;3.28;;
66342;SDS011;53144;51.524;5.080;2022-07-23T09:23:44;5.35;;;2.85;;
66342;SDS011;53144;51.524;5.080;2022-07-23T09:26:18;7.97;;;2.95;;
66342;SDS011;53144;51.524;5.080;2022-07-23T09:29:02;8.02;;;3.30;;
66342;SDS011;53144;51.524;5.080;2022-07-23T09:32:13;5.45;;;2.88;;
66342;SDS011;53144;51.524;5.080;2022-07-23T09:34:29;4.63;;;3.55;;
66342;SDS011;53144;51.524;5.080;2022-07-23T09:36:58;5.30;;;3.20;;
66342;SDS011;53144;51.524;5.080;2022-07-23T09:39:34;4.30;;;2.88;;
66342;SDS011;53144;51.524;5.080;2022-07-23T09:42:13;6.07;;;2.92;;
66342;SDS011;53144;51.524;5.080;2022-07-23T09:44:42;4.85;;;3.17;;
66342;SDS011;53144;51.524;5.080;2022-07-23T09:47:09;7.05;;;3.10;;
66342;SDS011;53144;51.524;5.080;2022-07-23T09:49:35;6.40;;;3.35;;
66342;SDS011;53144;51.524;5.080;2022-07-23T09:52:00;5.13;;;3.20;;
66342;SDS011;53144;51.524;5.080;2022-07-23T09:54:34;5.82;;;3.20;;
66342;SDS011;53144;51.524;5.080;2022-07-23T09:57:08;4.80;;;2.95;;
66342;SDS011;53144;51.524;5.080;2022-07-23T09:59:39;7.88;;;3.20;;
66342;SDS011;53144;51.524;5.080;2022-07-23T10:02:06;5.88;;;2.88;;
66342;SDS011;53144;51.524;5.080;2022-07-23T10:04:34;4.45;;;2.83;;
66342;SDS011;53144;51.524;5.080;2022-07-23T10:07:01;5.13;;;2.88;;
66342;SDS011;53144;51.524;5.080;2022-07-23T10:09:35;5.35;;;2.80;;
66342;SDS011;53144;51.524;5.080;2022-07-23T10:12:09;4.47;;;2.85;;
66342;SDS011;53144;51.524;5.080;2022-07-23T10:14:53;5.60;;;3.10;;
66342;SDS011;53144;51.524;5.080;2022-07-23T10:17:21;6.38;;;2.88;;
66342;SDS011;53144;51.524;5.080;2022-07-23T10:19:47;5.32;;;2.90;;
66342;SDS011;53144;51.524;5.080;2022-07-23T10:22:15;6.07;;;2.83;;
66342;SDS011;53144;51.524;5.080;2022-07-23T10:27:48;4.53;;;2.80;;
66342;SDS011;53144;51.524;5.080;2022-07-23T10:30:19;6.53;;;2.67;;
66342;SDS011;53144;51.524;5.080;2022-07-23T10:32:49;3.47;;;2.78;;
66342;SDS011;53144;51.524;5.080;2022-07-23T10:35:38;6.03;;;2.90;;
66342;SDS011;53144;51.524;5.080;2022-07-23T10:41:31;3.75;;;2.38;;
66342;SDS011;53144;51.524;5.080;2022-07-23T10:44:16;4.25;;;2.10;;
66342;SDS011;53144;51.524;5.080;2022-07-23T10:47:01;5.65;;;2.67;;
66342;SDS011;53144;51.524;5.080;2022-07-23T10:57:57;5.32;;;2.53;;
66342;SDS011;53144;51.524;5.080;2022-07-23T11:00:23;5.07;;;2.35;;
66342;SDS011;53144;51.524;5.080;2022-07-23T11:02:51;2.28;;;2.00;;
66342;SDS011;53144;51.524;5.080;2022-07-23T11:05:40;4.72;;;2.00;;
66342;SDS011;53144;51.524;5.080;2022-07-23T11:08:12;3.28;;;2.40;;
66342;SDS011;53144;51.524;5.080;2022-07-23T11:32:02;3.15;;;2.50;;
66342;SDS011;53144;51.524;5.080;2022-07-23T11:36:57;2.70;;;1.77;;
66342;SDS011;53144;51.524;5.080;2022-07-23T11:39:24;3.83;;;2.22;;
66342;SDS011;53144;51.524;5.080;2022-07-23T11:41:52;2.40;;;2.20;;
66342;SDS011;53144;51.524;5.080;2022-07-23T11:44:24;5.60;;;2.60;;
66342;SDS011;53144;51.524;5.080;2022-07-23T11:46:56;4.70;;;2.60;;
66342;SDS011;53144;51.524;5.080;2022-07-23T11:49:41;5.60;;;2.38;;
66342;SDS011;53144;51.524;5.080;2022-07-23T11:52:17;4.72;;;2.03;;
66342;SDS011;53144;51.524;5.080;2022-07-23T11:55:02;5.25;;;1.80;;
66342;SDS011;53144;51.524;5.080;2022-07-23T11:57:33;2.88;;;1.98;;
66342;SDS011;53144;51.524;5.080;2022-07-23T12:02:34;3.42;;;1.90;;
66342;SDS011;53144;51.524;5.080;2022-07-23T12:04:59;3.15;;;2.13;;
66342;SDS011;53144;51.524;5.080;2022-07-23T12:07:32;3.17;;;2.03;;
66342;SDS011;53144;51.524;5.080;2022-07-23T12:10:03;3.90;;;2.40;;
66342;SDS011;53144;51.524;5.080;2022-07-23T12:12:39;3.88;;;2.20;;
66342;SDS011;53144;51.524;5.080;2022-07-23T12:15:15;5.00;;;2.50;;
66342;SDS011;53144;51.524;5.080;2022-07-23T12:17:43;2.53;;;2.00;;
66342;SDS011;53144;51.524;5.080;2022-07-23T12:20:13;2.75;;;2.10;;
66342;SDS011;53144;51.524;5.080;2022-07-23T12:22:42;6.25;;;2.20;;
66342;SDS011;53144;51.524;5.080;2022-07-23T12:25:11;2.38;;;2.15;;
66342;SDS011;53144;51.524;5.080;2022-07-23T12:27:38;4.72;;;2.10;;
66342;SDS011;53144;51.524;5.080;2022-07-23T12:32:47;3.65;;;2.22;;
66342;SDS011;53144;51.524;5.080;2022-07-23T12:35:16;2.05;;;1.83;;
66342;SDS011;53144;51.524;5.080;2022-07-23T12:37:43;4.18;;;2.40;;
66342;SDS011;53144;51.524;5.080;2022-07-23T12:40:31;3.58;;;2.17;;
66342;SDS011;53144;51.524;5.080;2022-07-23T12:43:06;2.33;;;1.98;;
66342;SDS011;53144;51.524;5.080;2022-07-23T12:48:15;2.30;;;1.80;;
66342;SDS011;53144;51.524;5.080;2022-07-23T12:53:18;2.10;;;1.75;;
66342;SDS011;53144;51.524;5.080;2022-07-23T12:55:49;4.68;;;2.00;;
66342;SDS011;53144;51.524;5.080;2022-07-23T12:58:17;3.58;;;1.90;;
66342;SDS011;53144;51.524;5.080;2022-07-23T13:01:00;1.75;;;1.63;;
66342;SDS011;53144;51.524;5.080;2022-07-23T13:03:36;3.03;;;1.92;;
66342;SDS011;53144;51.524;5.080;2022-07-23T13:06:09;3.15;;;1.73;;
66342;SDS011;53144;51.524;5.080;2022-07-23T13:08:37;4.03;;;2.30;;
66342;SDS011;53144;51.524;5.080;2022-07-23T13:11:04;2.40;;;2.17;;
66342;SDS011;53144;51.524;5.080;2022-07-23T13:13:31;6.18;;;2.40;;
66342;SDS011;53144;51.524;5.080;2022-07-23T13:15:59;3.80;;;1.90;;
66342;SDS011;53144;51.524;5.080;2022-07-23T13:18:25;2.40;;;2.20;;
66342;SDS011;53144;51.524;5.080;2022-07-23T13:20:51;3.75;;;1.90;;
66342;SDS011;53144;51.524;5.080;2022-07-23T13:23:17;2.30;;;1.80;;
66342;SDS011;53144;51.524;5.080;2022-07-23T13:25:43;1.95;;;1.80;;
66342;SDS011;53144;51.524;5.080;2022-07-23T13:28:09;4.07;;;2.25;;
66342;SDS011;53144;51.524;5.080;2022-07-23T13:30:35;3.05;;;1.90;;
66342;SDS011;53144;51.524;5.080;2022-07-23T13:33:01;3.90;;;2.05;;
66342;SDS011;53144;51.524;5.080;2022-07-23T13:35:28;3.60;;;1.92;;
66342;SDS011;53144;51.524;5.080;2022-07-23T13:37:54;3.33;;;2.22;;
66342;SDS011;53144;51.524;5.080;2022-07-23T13:40:20;3.03;;;2.00;;
66342;SDS011;53144;51.524;5.080;2022-07-23T13:42:45;2.83;;;2.13;;
66342;SDS011;53144;51.524;5.080;2022-07-23T13:45:11;2.92;;;2.28;;
66342;SDS011;53144;51.524;5.080;2022-07-23T13:47:36;2.90;;;2.42;;
66342;SDS011;53144;51.524;5.080;2022-07-23T13:50:02;2.97;;;2.20;;
66342;SDS011;53144;51.524;5.080;2022-07-23T13:52:28;3.67;;;2.30;;
66342;SDS011;53144;51.524;5.080;2022-07-23T13:54:54;3.05;;;1.77;;
66342;SDS011;53144;51.524;5.080;2022-07-23T13:57:19;3.88;;;2.05;;
66342;SDS011;53144;51.524;5.080;2022-07-23T13:59:44;1.80;;;1.70;;
66342;SDS011;53144;51.524;5.080;2022-07-23T14:02:10;2.80;;;2.10;;
66342;SDS011;53144;51.524;5.080;2022-07-23T14:04:40;2.35;;;2.15;;
66342;SDS011;53144;51.524;5.080;2022-07-23T14:07:05;3.13;;;2.00;;
66342;SDS011;53144;51.524;5.080;2022-07-23T14:09:31;4.38;;;2.10;;
66342;SDS011;53144;51.524;5.080;2022-07-23T14:11:58;3.25;;;2.03;;
66342;SDS011;53144;51.524;5.080;2022-07-23T14:14:24;3.95;;;2.13;;
66342;SDS011;53144;51.524;5.080;2022-07-23T14:16:49;3.13;;;2.00;;
66342;SDS011;53144;51.524;5.080;2022-07-23T14:19:15;2.60;;;2.10;;
66342;SDS011;53144;51.524;5.080;2022-07-23T14:21:40;3.90;;;2.13;;
66342;SDS011;53144;51.524;5.080;2022-07-23T14:24:05;3.88;;;2.00;;
66342;SDS011;53144;51.524;5.080;2022-07-23T14:26:31;4.97;;;2.63;;
66342;SDS011;53144;51.524;5.080;2022-07-23T14:28:57;3.05;;;1.98;;
66342;SDS011;53144;51.524;5.080;2022-07-23T14:31:22;6.47;;;2.30;;
66342;SDS011;53144;51.524;5.080;2022-07-23T14:33:48;2.72;;;2.20;;
66342;SDS011;53144;51.524;5.080;2022-07-23T14:36:13;2.63;;;2.20;;
66342;SDS011;53144;51.524;5.080;2022-07-23T14:38:39;2.55;;;1.88;;
66342;SDS011;53144;51.524;5.080;2022-07-23T14:41:04;2.80;;;2.00;;
66342;SDS011;53144;51.524;5.080;2022-07-23T14:43:31;3.47;;;2.80;;
66342;SDS011;53144;51.524;5.080;2022-07-23T14:45:57;3.10;;;2.00;;
66342;SDS011;53144;51.524;5.080;2022-07-23T14:48:23;3.35;;;2.03;;
66342;SDS011;53144;51.524;5.080;2022-07-23T14:50:48;2.97;;;2.20;;
66342;SDS011;53144;51.524;5.080;2022-07-23T14:53:14;4.07;;;2.40;;
66342;SDS011;53144;51.524;5.080;2022-07-23T14:55:39;2.38;;;1.85;;
66342;SDS011;53144;51.524;5.080;2022-07-23T14:58:04;3.47;;;2.05;;
66342;SDS011;53144;51.524;5.080;2022-07-23T15:00:30;3.28;;;2.42;;
66342;SDS011;53144;51.524;5.080;2022-07-23T15:02:55;2.67;;;2.35;;
66342;SDS011;53144;51.524;5.080;2022-07-23T15:05:21;2.97;;;2.20;;
66342;SDS011;53144;51.524;5.080;2022-07-23T15:07:47;5.32;;;2.63;;
66342;SDS011;53144;51.524;5.080;2022-07-23T15:10:13;4.38;;;2.55;;
66342;SDS011;53144;51.524;5.080;2022-07-23T15:12:38;3.42;;;2.60;;
66342;SDS011;53144;51.524;5.080;2022-07-23T15:15:04;8.45;;;3.03;;
66342;SDS011;53144;51.524;5.080;2022-07-23T15:17:30;4.25;;;2.45;;
66342;SDS011;53144;51.524;5.080;2022-07-23T15:19:55;5.28;;;2.60;;
66342;SDS011;53144;51.524;5.080;2022-07-23T15:22:21;7.80;;;2.63;;
66342;SDS011;53144;51.524;5.080;2022-07-23T15:24:46;3.72;;;2.55;;
66342;SDS011;53144;51.524;5.080;2022-07-23T15:27:12;3.15;;;2.85;;
66342;SDS011;53144;51.524;5.080;2022-07-23T15:29:37;3.58;;;2.70;;
66342;SDS011;53144;51.524;5.080;2022-07-23T15:32:03;3.45;;;2.63;;
66342;SDS011;53144;51.524;5.080;2022-07-23T15:34:28;3.22;;;2.90;;
66342;SDS011;53144;51.524;5.080;2022-07-23T15:36:54;6.18;;;2.90;;
66342;SDS011;53144;51.524;5.080;2022-07-23T15:39:19;4.18;;;3.05;;
66342;SDS011;53144;51.524;5.080;2022-07-23T15:41:45;4.90;;;3.17;;
66342;SDS011;53144;51.524;5.080;2022-07-23T15:44:10;6.30;;;3.67;;
66342;SDS011;53144;51.524;5.080;2022-07-23T15:46:35;4.07;;;3.00;;
66342;SDS011;53144;51.524;5.080;2022-07-23T15:49:02;3.33;;;3.03;;
66342;SDS011;53144;51.524;5.080;2022-07-23T15:51:28;4.40;;;2.92;;
66342;SDS011;53144;51.524;5.080;2022-07-23T15:53:54;4.25;;;3.15;;
66342;SDS011;53144;51.524;5.080;2022-07-23T15:56:19;3.15;;;2.80;;
66342;SDS011;53144;51.524;5.080;2022-07-23T15:58:44;5.97;;;3.20;;
66342;SDS011;53144;51.524;5.080;2022-07-23T16:01:10;4.65;;;3.22;;
66342;SDS011;53144;51.524;5.080;2022-07-23T16:03:36;4.43;;;3.65;;
66342;SDS011;53144;51.524;5.080;2022-07-23T16:06:02;3.92;;;3.47;;
66342;SDS011;53144;51.524;5.080;2022-07-23T16:08:29;4.07;;;3.60;;
66342;SDS011;53144;51.524;5.080;2022-07-23T16:10:54;6.10;;;3.80;;
66342;SDS011;53144;51.524;5.080;2022-07-23T16:13:22;3.90;;;3.10;;
66342;SDS011;53144;51.524;5.080;2022-07-23T16:15:48;3.78;;;3.28;;
66342;SDS011;53144;51.524;5.080;2022-07-23T16:18:13;4.43;;;3.90;;
66342;SDS011;53144;51.524;5.080;2022-07-23T16:20:39;5.43;;;3.65;;
66342;SDS011;53144;51.524;5.080;2022-07-23T16:23:04;5.72;;;3.35;;
66342;SDS011;53144;51.524;5.080;2022-07-23T16:25:31;4.72;;;3.80;;
66342;SDS011;53144;51.524;5.080;2022-07-23T16:27:57;4.72;;;3.38;;
66342;SDS011;53144;51.524;5.080;2022-07-23T16:30:22;9.52;;;4.00;;
66342;SDS011;53144;51.524;5.080;2022-07-23T16:32:48;5.95;;;4.30;;
66342;SDS011;53144;51.524;5.080;2022-07-23T16:35:13;5.10;;;4.20;;
66342;SDS011;53144;51.524;5.080;2022-07-23T16:37:38;5.03;;;4.13;;
66342;SDS011;53144;51.524;5.080;2022-07-23T16:40:05;6.65;;;4.15;;
66342;SDS011;53144;51.524;5.080;2022-07-23T16:42:33;5.65;;;4.22;;
66342;SDS011;53144;51.524;5.080;2022-07-23T16:44:59;7.65;;;4.80;;
66342;SDS011;53144;51.524;5.080;2022-07-23T16:47:24;5.70;;;4.65;;
66342;SDS011;53144;51.524;5.080;2022-07-23T16:49:50;4.97;;;3.90;;
66342;SDS011;53144;51.524;5.080;2022-07-23T16:52:15;8.07;;;4.90;;
66342;SDS011;53144;51.524;5.080;2022-07-23T16:54:41;4.10;;;3.70;;
66342;SDS011;53144;51.524;5.080;2022-07-23T16:57:07;7.28;;;4.18;;
66342;SDS011;53144;51.524;5.080;2022-07-23T16:59:33;5.05;;;3.70;;
66342;SDS011;53144;51.524;5.080;2022-07-23T17:01:58;7.35;;;4.10;;
66342;SDS011;53144;51.524;5.080;2022-07-23T17:04:24;4.18;;;3.50;;